sensor_id;sensor_type;location;lat;lon;timestamp;pressure;altitude;pressure_sealevel;temperature
34023;BMP280;20673;48.980;8.138;2023-05-18T00:00:52;100822.52;;;8.38
34023;BMP280;20673;48.980;8.138;2023-05-18T00:03:20;100816.87;;;8.40
34023;BMP280;20673;48.980;8.138;2023-05-18T00:05:46;100816.68;;;8.41
34023;BMP280;20673;48.980;8.138;2023-05-18T00:08:14;100817.11;;;8.39
34023;BMP280;20673;48.980;8.138;2023-05-18T00:10:40;100810.69;;;8.41
34023;BMP280;20673;48.980;8.138;2023-05-18T00:13:07;100809.15;;;8.39
34023;BMP280;20673;48.980;8.138;2023-05-18T00:15:33;100806.20;;;8.38
34023;BMP280;20673;48.980;8.138;2023-05-18T00:18:00;100809.84;;;8.38
34023;BMP280;20673;48.980;8.138;2023-05-18T00:20:26;100803.61;;;8.34
34023;BMP280;20673;48.980;8.138;2023-05-18T00:22:53;100806.39;;;8.32
34023;BMP280;20673;48.980;8.138;2023-05-18T00:25:19;100809.62;;;8.31
34023;BMP280;20673;48.980;8.138;2023-05-18T00:27:46;100804.18;;;8.30
34023;BMP280;20673;48.980;8.138;2023-05-18T00:30:14;100799.91;;;8.31
34023;BMP280;20673;48.980;8.138;2023-05-18T00:32:42;100797.67;;;8.29
34023;BMP280;20673;48.980;8.138;2023-05-18T00:35:09;100792.81;;;8.29
34023;BMP280;20673;48.980;8.138;2023-05-18T00:37:35;100792.54;;;8.29
34023;BMP280;20673;48.980;8.138;2023-05-18T00:40:02;100788.23;;;8.26
34023;BMP280;20673;48.980;8.138;2023-05-18T00:42:30;100794.66;;;8.21
34023;BMP280;20673;48.980;8.138;2023-05-18T00:44:56;100790.85;;;8.21
34023;BMP280;20673;48.980;8.138;2023-05-18T00:47:22;100793.68;;;8.21
34023;BMP280;20673;48.980;8.138;2023-05-18T00:49:48;100791.36;;;8.19
34023;BMP280;20673;48.980;8.138;2023-05-18T00:52:15;100795.04;;;8.16
34023;BMP280;20673;48.980;8.138;2023-05-18T00:54:42;100789.50;;;8.13
34023;BMP280;20673;48.980;8.138;2023-05-18T00:57:08;100797.17;;;8.13
34023;BMP280;20673;48.980;8.138;2023-05-18T00:59:35;100792.58;;;8.09
34023;BMP280;20673;48.980;8.138;2023-05-18T01:02:02;100794.73;;;8.09
34023;BMP280;20673;48.980;8.138;2023-05-18T01:04:28;100791.15;;;8.06
34023;BMP280;20673;48.980;8.138;2023-05-18T01:06:57;100794.54;;;8.04
34023;BMP280;20673;48.980;8.138;2023-05-18T01:09:23;100793.81;;;8.01
34023;BMP280;20673;48.980;8.138;2023-05-18T01:14:48;100795.87;;;7.94
34023;BMP280;20673;48.980;8.138;2023-05-18T01:20:30;100791.18;;;7.84
34023;BMP280;20673;48.980;8.138;2023-05-18T01:28:31;100793.53;;;7.77
34023;BMP280;20673;48.980;8.138;2023-05-18T01:30:58;100792.54;;;7.74
34023;BMP280;20673;48.980;8.138;2023-05-18T01:33:25;100789.53;;;7.71
34023;BMP280;20673;48.980;8.138;2023-05-18T01:35:51;100792.36;;;7.69
34023;BMP280;20673;48.980;8.138;2023-05-18T01:38:22;100789.34;;;7.66
34023;BMP280;20673;48.980;8.138;2023-05-18T01:41:15;100791.61;;;7.61
34023;BMP280;20673;48.980;8.138;2023-05-18T01:44:01;100786.89;;;7.60
34023;BMP280;20673;48.980;8.138;2023-05-18T01:49:35;100788.78;;;7.55
34023;BMP280;20673;48.980;8.138;2023-05-18T01:52:18;100789.78;;;7.56
34023;BMP280;20673;48.980;8.138;2023-05-18T01:54:49;100784.59;;;7.52
34023;BMP280;20673;48.980;8.138;2023-05-18T01:57:23;100787.05;;;7.51
34023;BMP280;20673;48.980;8.138;2023-05-18T01:59:51;100788.57;;;7.48
34023;BMP280;20673;48.980;8.138;2023-05-18T02:02:19;100786.61;;;7.44
34023;BMP280;20673;48.980;8.138;2023-05-18T02:04:46;100787.79;;;7.41
34023;BMP280;20673;48.980;8.138;2023-05-18T02:07:37;100784.29;;;7.42
34023;BMP280;20673;48.980;8.138;2023-05-18T02:10:07;100779.53;;;7.38
34023;BMP280;20673;48.980;8.138;2023-05-18T02:12:33;100779.40;;;7.38
34023;BMP280;20673;48.980;8.138;2023-05-18T02:14:59;100778.03;;;7.36
34023;BMP280;20673;48.980;8.138;2023-05-18T02:17:27;100775.80;;;7.34
34023;BMP280;20673;48.980;8.138;2023-05-18T02:19:53;100776.51;;;7.28
34023;BMP280;20673;48.980;8.138;2023-05-18T02:22:20;100776.94;;;7.30
34023;BMP280;20673;48.980;8.138;2023-05-18T02:24:46;100779.04;;;7.28
34023;BMP280;20673;48.980;8.138;2023-05-18T02:27:13;100773.75;;;7.25
34023;BMP280;20673;48.980;8.138;2023-05-18T02:29:40;100776.58;;;7.21
34023;BMP280;20673;48.980;8.138;2023-05-18T02:32:07;100774.23;;;7.16
34023;BMP280;20673;48.980;8.138;2023-05-18T02:34:33;100775.61;;;7.21
34023;BMP280;20673;48.980;8.138;2023-05-18T02:37:00;100769.97;;;7.21
34023;BMP280;20673;48.980;8.138;2023-05-18T02:39:29;100774.93;;;7.19
34023;BMP280;20673;48.980;8.138;2023-05-18T02:41:56;100771.50;;;7.18
34023;BMP280;20673;48.980;8.138;2023-05-18T02:44:22;100765.71;;;7.15
34023;BMP280;20673;48.980;8.138;2023-05-18T02:46:48;100769.54;;;7.16
34023;BMP280;20673;48.980;8.138;2023-05-18T02:49:14;100766.25;;;7.14
34023;BMP280;20673;48.980;8.138;2023-05-18T02:51:40;100767.36;;;7.13
34023;BMP280;20673;48.980;8.138;2023-05-18T02:54:06;100764.98;;;7.07
34023;BMP280;20673;48.980;8.138;2023-05-18T02:56:32;100770.75;;;7.05
34023;BMP280;20673;48.980;8.138;2023-05-18T02:58:58;100767.44;;;7.01
34023;BMP280;20673;48.980;8.138;2023-05-18T03:01:25;100769.48;;;6.98
34023;BMP280;20673;48.980;8.138;2023-05-18T03:03:53;100768.78;;;6.97
34023;BMP280;20673;48.980;8.138;2023-05-18T03:06:19;100766.14;;;6.94
34023;BMP280;20673;48.980;8.138;2023-05-18T03:08:50;100764.22;;;6.91
34023;BMP280;20673;48.980;8.138;2023-05-18T03:11:18;100761.30;;;6.88
34023;BMP280;20673;48.980;8.138;2023-05-18T03:13:44;100760.02;;;6.85
34023;BMP280;20673;48.980;8.138;2023-05-18T03:16:10;100765.59;;;6.84
34023;BMP280;20673;48.980;8.138;2023-05-18T03:18:38;100768.35;;;6.83
34023;BMP280;20673;48.980;8.138;2023-05-18T03:21:04;100765.54;;;6.81
34023;BMP280;20673;48.980;8.138;2023-05-18T03:23:30;100768.53;;;6.81
34023;BMP280;20673;48.980;8.138;2023-05-18T03:25:57;100768.55;;;6.78
34023;BMP280;20673;48.980;8.138;2023-05-18T03:28:23;100773.43;;;6.76
34023;BMP280;20673;48.980;8.138;2023-05-18T03:30:49;100776.43;;;6.72
34023;BMP280;20673;48.980;8.138;2023-05-18T03:33:15;100780.25;;;6.73
34023;BMP280;20673;48.980;8.138;2023-05-18T03:35:42;100778.73;;;6.73
34023;BMP280;20673;48.980;8.138;2023-05-18T03:38:08;100777.58;;;6.71
34023;BMP280;20673;48.980;8.138;2023-05-18T03:40:34;100780.06;;;6.70
34023;BMP280;20673;48.980;8.138;2023-05-18T03:43:00;100785.06;;;6.66
34023;BMP280;20673;48.980;8.138;2023-05-18T03:45:26;100787.47;;;6.66
34023;BMP280;20673;48.980;8.138;2023-05-18T03:47:53;100794.98;;;6.64
34023;BMP280;20673;48.980;8.138;2023-05-18T03:50:19;100792.72;;;6.63
34023;BMP280;20673;48.980;8.138;2023-05-18T03:52:46;100796.39;;;6.62
34023;BMP280;20673;48.980;8.138;2023-05-18T03:55:12;100802.31;;;6.62
34023;BMP280;20673;48.980;8.138;2023-05-18T03:57:38;100796.64;;;6.60
34023;BMP280;20673;48.980;8.138;2023-05-18T04:00:06;100797.48;;;6.61
34023;BMP280;20673;48.980;8.138;2023-05-18T04:02:34;100799.65;;;6.63
34023;BMP280;20673;48.980;8.138;2023-05-18T04:05:00;100804.42;;;6.61
34023;BMP280;20673;48.980;8.138;2023-05-18T04:07:26;100803.29;;;6.65
34023;BMP280;20673;48.980;8.138;2023-05-18T04:09:55;100804.45;;;6.65
34023;BMP280;20673;48.980;8.138;2023-05-18T04:12:22;100805.36;;;6.69
34023;BMP280;20673;48.980;8.138;2023-05-18T04:14:48;100810.47;;;6.71
34023;BMP280;20673;48.980;8.138;2023-05-18T04:17:19;100808.29;;;6.72
34023;BMP280;20673;48.980;8.138;2023-05-18T04:19:49;100810.34;;;6.76
34023;BMP280;20673;48.980;8.138;2023-05-18T04:22:15;100810.15;;;6.77
34023;BMP280;20673;48.980;8.138;2023-05-18T04:24:42;100814.50;;;6.82
34023;BMP280;20673;48.980;8.138;2023-05-18T04:27:10;100817.21;;;6.84
34023;BMP280;20673;48.980;8.138;2023-05-18T04:29:36;100822.93;;;6.88
34023;BMP280;20673;48.980;8.138;2023-05-18T04:32:08;100822.54;;;6.92
34023;BMP280;20673;48.980;8.138;2023-05-18T04:34:36;100826.15;;;6.98
34023;BMP280;20673;48.980;8.138;2023-05-18T04:37:03;100826.61;;;7.01
34023;BMP280;20673;48.980;8.138;2023-05-18T04:39:31;100825.20;;;7.09
34023;BMP280;20673;48.980;8.138;2023-05-18T04:42:00;100825.06;;;7.16
34023;BMP280;20673;48.980;8.138;2023-05-18T04:44:27;100826.43;;;7.23
34023;BMP280;20673;48.980;8.138;2023-05-18T04:46:54;100830.45;;;7.34
34023;BMP280;20673;48.980;8.138;2023-05-18T04:49:21;100827.30;;;7.38
34023;BMP280;20673;48.980;8.138;2023-05-18T04:51:53;100833.72;;;7.50
34023;BMP280;20673;48.980;8.138;2023-05-18T04:54:27;100834.90;;;7.55
34023;BMP280;20673;48.980;8.138;2023-05-18T04:56:56;100836.01;;;7.64
34023;BMP280;20673;48.980;8.138;2023-05-18T04:59:24;100835.22;;;7.71
34023;BMP280;20673;48.980;8.138;2023-05-18T05:01:54;100837.03;;;7.78
34023;BMP280;20673;48.980;8.138;2023-05-18T05:04:21;100837.87;;;7.86
34023;BMP280;20673;48.980;8.138;2023-05-18T05:06:47;100839.59;;;7.93
34023;BMP280;20673;48.980;8.138;2023-05-18T05:09:13;100841.40;;;7.98
34023;BMP280;20673;48.980;8.138;2023-05-18T05:11:42;100837.79;;;8.03
34023;BMP280;20673;48.980;8.138;2023-05-18T05:14:08;100843.95;;;8.11
34023;BMP280;20673;48.980;8.138;2023-05-18T05:16:35;100844.56;;;8.18
34023;BMP280;20673;48.980;8.138;2023-05-18T05:19:01;100842.42;;;8.27
34023;BMP280;20673;48.980;8.138;2023-05-18T05:21:27;100841.72;;;8.33
34023;BMP280;20673;48.980;8.138;2023-05-18T05:23:53;100844.67;;;8.39
34023;BMP280;20673;48.980;8.138;2023-05-18T05:26:19;100837.08;;;8.47
34023;BMP280;20673;48.980;8.138;2023-05-18T05:28:48;100841.90;;;8.52
34023;BMP280;20673;48.980;8.138;2023-05-18T05:31:14;100839.30;;;8.60
34023;BMP280;20673;48.980;8.138;2023-05-18T05:33:41;100839.58;;;8.65
34023;BMP280;20673;48.980;8.138;2023-05-18T05:36:08;100840.14;;;8.75
34023;BMP280;20673;48.980;8.138;2023-05-18T05:38:34;100845.83;;;8.78
34023;BMP280;20673;48.980;8.138;2023-05-18T05:41:00;100842.46;;;8.89
34023;BMP280;20673;48.980;8.138;2023-05-18T05:43:26;100844.15;;;8.97
34023;BMP280;20673;48.980;8.138;2023-05-18T05:45:53;100845.12;;;9.04
34023;BMP280;20673;48.980;8.138;2023-05-18T05:48:19;100840.83;;;9.15
34023;BMP280;20673;48.980;8.138;2023-05-18T05:50:46;100842.34;;;9.27
34023;BMP280;20673;48.980;8.138;2023-05-18T05:53:12;100841.90;;;9.33
34023;BMP280;20673;48.980;8.138;2023-05-18T05:55:40;100840.03;;;9.39
34023;BMP280;20673;48.980;8.138;2023-05-18T05:58:08;100841.06;;;9.49
34023;BMP280;20673;48.980;8.138;2023-05-18T06:00:34;100842.97;;;9.52
34023;BMP280;20673;48.980;8.138;2023-05-18T06:03:01;100843.48;;;9.68
34023;BMP280;20673;48.980;8.138;2023-05-18T06:05:27;100846.10;;;9.78
34023;BMP280;20673;48.980;8.138;2023-05-18T06:07:55;100843.62;;;9.86
34023;BMP280;20673;48.980;8.138;2023-05-18T06:10:22;100843.58;;;9.95
34023;BMP280;20673;48.980;8.138;2023-05-18T06:12:48;100850.97;;;10.01
34023;BMP280;20673;48.980;8.138;2023-05-18T06:15:14;100847.51;;;10.07
34023;BMP280;20673;48.980;8.138;2023-05-18T06:17:40;100848.62;;;10.24
34023;BMP280;20673;48.980;8.138;2023-05-18T06:20:10;100845.83;;;10.35
34023;BMP280;20673;48.980;8.138;2023-05-18T06:22:36;100850.25;;;10.43
34023;BMP280;20673;48.980;8.138;2023-05-18T06:25:03;100852.45;;;10.49
34023;BMP280;20673;48.980;8.138;2023-05-18T06:27:29;100848.18;;;10.58
34023;BMP280;20673;48.980;8.138;2023-05-18T06:29:55;100848.33;;;10.66
34023;BMP280;20673;48.980;8.138;2023-05-18T06:32:21;100849.11;;;10.75
34023;BMP280;20673;48.980;8.138;2023-05-18T06:34:48;100853.41;;;10.93
34023;BMP280;20673;48.980;8.138;2023-05-18T06:37:16;100860.72;;;11.03
34023;BMP280;20673;48.980;8.138;2023-05-18T06:39:42;100851.71;;;11.05
34023;BMP280;20673;48.980;8.138;2023-05-18T06:42:08;100849.29;;;11.27
34023;BMP280;20673;48.980;8.138;2023-05-18T06:44:34;100839.97;;;11.34
34023;BMP280;20673;48.980;8.138;2023-05-18T06:47:01;100841.37;;;11.51
34023;BMP280;20673;48.980;8.138;2023-05-18T06:49:27;100850.00;;;11.62
34023;BMP280;20673;48.980;8.138;2023-05-18T06:51:53;100846.93;;;11.70
34023;BMP280;20673;48.980;8.138;2023-05-18T06:54:19;100848.28;;;11.88
34023;BMP280;20673;48.980;8.138;2023-05-18T06:56:45;100843.76;;;11.95
34023;BMP280;20673;48.980;8.138;2023-05-18T06:59:12;100839.89;;;12.08
34023;BMP280;20673;48.980;8.138;2023-05-18T07:01:38;100847.97;;;12.18
34023;BMP280;20673;48.980;8.138;2023-05-18T07:04:04;100842.31;;;12.19
34023;BMP280;20673;48.980;8.138;2023-05-18T07:06:30;100855.36;;;12.26
34023;BMP280;20673;48.980;8.138;2023-05-18T07:08:56;100850.79;;;12.27
34023;BMP280;20673;48.980;8.138;2023-05-18T07:11:22;100849.14;;;12.39
34023;BMP280;20673;48.980;8.138;2023-05-18T07:13:48;100848.58;;;12.50
34023;BMP280;20673;48.980;8.138;2023-05-18T07:16:14;100848.80;;;12.63
34023;BMP280;20673;48.980;8.138;2023-05-18T07:18:41;100839.51;;;12.77
34023;BMP280;20673;48.980;8.138;2023-05-18T07:21:07;100845.07;;;12.90
34023;BMP280;20673;48.980;8.138;2023-05-18T07:23:33;100847.24;;;13.07
34023;BMP280;20673;48.980;8.138;2023-05-18T07:25:59;100843.30;;;13.17
34023;BMP280;20673;48.980;8.138;2023-05-18T07:28:25;100845.43;;;13.26
34023;BMP280;20673;48.980;8.138;2023-05-18T07:30:51;100844.59;;;13.32
34023;BMP280;20673;48.980;8.138;2023-05-18T07:33:18;100835.36;;;13.40
34023;BMP280;20673;48.980;8.138;2023-05-18T07:35:44;100831.28;;;13.47
34023;BMP280;20673;48.980;8.138;2023-05-18T07:38:10;100835.62;;;13.63
34023;BMP280;20673;48.980;8.138;2023-05-18T07:40:36;100828.90;;;13.63
34023;BMP280;20673;48.980;8.138;2023-05-18T07:43:02;100833.67;;;13.85
34023;BMP280;20673;48.980;8.138;2023-05-18T07:45:28;100831.22;;;13.94
34023;BMP280;20673;48.980;8.138;2023-05-18T07:47:54;100828.58;;;14.01
34023;BMP280;20673;48.980;8.138;2023-05-18T07:50:21;100828.93;;;14.10
34023;BMP280;20673;48.980;8.138;2023-05-18T07:52:47;100829.19;;;14.23
34023;BMP280;20673;48.980;8.138;2023-05-18T07:55:13;100825.53;;;14.41
34023;BMP280;20673;48.980;8.138;2023-05-18T07:57:39;100830.15;;;14.50
34023;BMP280;20673;48.980;8.138;2023-05-18T08:00:06;100826.15;;;14.62
34023;BMP280;20673;48.980;8.138;2023-05-18T08:02:34;100818.61;;;14.86
34023;BMP280;20673;48.980;8.138;2023-05-18T08:05:00;100821.82;;;15.04
34023;BMP280;20673;48.980;8.138;2023-05-18T08:07:28;100813.72;;;15.08
34023;BMP280;20673;48.980;8.138;2023-05-18T08:09:55;100812.61;;;15.10
34023;BMP280;20673;48.980;8.138;2023-05-18T08:12:21;100815.63;;;15.26
34023;BMP280;20673;48.980;8.138;2023-05-18T08:14:48;100817.03;;;15.29
34023;BMP280;20673;48.980;8.138;2023-05-18T08:17:14;100823.68;;;15.15
34023;BMP280;20673;48.980;8.138;2023-05-18T08:19:40;100813.68;;;15.43
34023;BMP280;20673;48.980;8.138;2023-05-18T08:22:06;100808.83;;;15.56
34023;BMP280;20673;48.980;8.138;2023-05-18T08:24:32;100807.03;;;15.91
34023;BMP280;20673;48.980;8.138;2023-05-18T08:26:58;100802.06;;;16.05
34023;BMP280;20673;48.980;8.138;2023-05-18T08:29:24;100803.29;;;16.46
34023;BMP280;20673;48.980;8.138;2023-05-18T08:31:51;100803.45;;;16.42
34023;BMP280;20673;48.980;8.138;2023-05-18T08:34:17;100806.47;;;16.43
34023;BMP280;20673;48.980;8.138;2023-05-18T08:36:43;100801.14;;;16.32
34023;BMP280;20673;48.980;8.138;2023-05-18T08:39:11;100805.01;;;16.67
34023;BMP280;20673;48.980;8.138;2023-05-18T08:45:26;100795.53;;;16.66
34023;BMP280;20673;48.980;8.138;2023-05-18T08:47:09;100794.67;;;17.04
34023;BMP280;20673;48.980;8.138;2023-05-18T08:49:41;100797.81;;;16.95
34023;BMP280;20673;48.980;8.138;2023-05-18T08:52:08;100798.25;;;17.17
34023;BMP280;20673;48.980;8.138;2023-05-18T08:54:36;100789.56;;;17.30
34023;BMP280;20673;48.980;8.138;2023-05-18T08:57:07;100783.89;;;17.34
34023;BMP280;20673;48.980;8.138;2023-05-18T08:59:39;100795.62;;;17.38
34023;BMP280;20673;48.980;8.138;2023-05-18T09:02:07;100800.17;;;17.76
34023;BMP280;20673;48.980;8.138;2023-05-18T09:04:34;100797.02;;;17.75
34023;BMP280;20673;48.980;8.138;2023-05-18T09:07:03;100791.62;;;17.62
34023;BMP280;20673;48.980;8.138;2023-05-18T09:09:30;100794.43;;;17.64
34023;BMP280;20673;48.980;8.138;2023-05-18T09:11:58;100788.88;;;17.80
34023;BMP280;20673;48.980;8.138;2023-05-18T09:14:24;100785.54;;;17.97
34023;BMP280;20673;48.980;8.138;2023-05-18T09:16:52;100784.93;;;18.32
34023;BMP280;20673;48.980;8.138;2023-05-18T09:19:19;100779.50;;;18.32
34023;BMP280;20673;48.980;8.138;2023-05-18T09:21:45;100774.87;;;18.19
34023;BMP280;20673;48.980;8.138;2023-05-18T09:24:12;100782.25;;;18.45
34023;BMP280;20673;48.980;8.138;2023-05-18T09:26:39;100777.98;;;18.26
34023;BMP280;20673;48.980;8.138;2023-05-18T09:29:20;100784.18;;;18.31
34023;BMP280;20673;48.980;8.138;2023-05-18T09:31:47;100780.75;;;18.49
34023;BMP280;20673;48.980;8.138;2023-05-18T09:34:14;100788.00;;;18.38
34023;BMP280;20673;48.980;8.138;2023-05-18T09:36:41;100775.18;;;18.69
34023;BMP280;20673;48.980;8.138;2023-05-18T09:39:11;100776.65;;;18.82
34023;BMP280;20673;48.980;8.138;2023-05-18T09:41:38;100786.33;;;19.00
34023;BMP280;20673;48.980;8.138;2023-05-18T09:44:10;100778.14;;;19.09
34023;BMP280;20673;48.980;8.138;2023-05-18T09:46:35;100760.76;;;18.76
34023;BMP280;20673;48.980;8.138;2023-05-18T09:49:06;100781.70;;;19.07
34023;BMP280;20673;48.980;8.138;2023-05-18T09:51:37;100788.69;;;19.04
34023;BMP280;20673;48.980;8.138;2023-05-18T09:54:06;100775.36;;;19.29
34023;BMP280;20673;48.980;8.138;2023-05-18T09:56:36;100778.68;;;19.42
34023;BMP280;20673;48.980;8.138;2023-05-18T09:59:14;100778.62;;;19.64
34023;BMP280;20673;48.980;8.138;2023-05-18T10:02:01;100768.34;;;20.10
34023;BMP280;20673;48.980;8.138;2023-05-18T10:04:43;100775.39;;;20.24
34023;BMP280;20673;48.980;8.138;2023-05-18T10:07:14;100782.66;;;20.41
34023;BMP280;20673;48.980;8.138;2023-05-18T10:09:44;100769.07;;;20.56
34023;BMP280;20673;48.980;8.138;2023-05-18T10:12:14;100761.58;;;20.14
34023;BMP280;20673;48.980;8.138;2023-05-18T10:14:43;100759.87;;;20.28
34023;BMP280;20673;48.980;8.138;2023-05-18T10:17:14;100765.89;;;20.64
34023;BMP280;20673;48.980;8.138;2023-05-18T10:19:44;100776.00;;;20.77
34023;BMP280;20673;48.980;8.138;2023-05-18T10:22:15;100759.90;;;20.27
34023;BMP280;20673;48.980;8.138;2023-05-18T10:24:49;100766.28;;;19.87
34023;BMP280;20673;48.980;8.138;2023-05-18T10:27:16;100781.48;;;20.04
34023;BMP280;20673;48.980;8.138;2023-05-18T10:29:45;100756.67;;;19.53
34023;BMP280;20673;48.980;8.138;2023-05-18T10:32:11;100766.22;;;20.05
34023;BMP280;20673;48.980;8.138;2023-05-18T10:34:39;100774.33;;;20.32
34023;BMP280;20673;48.980;8.138;2023-05-18T10:37:07;100753.20;;;20.26
34023;BMP280;20673;48.980;8.138;2023-05-18T10:39:35;100741.00;;;20.45
34023;BMP280;20673;48.980;8.138;2023-05-18T10:42:05;100767.95;;;20.59
34023;BMP280;20673;48.980;8.138;2023-05-18T10:44:35;100758.75;;;20.66
34023;BMP280;20673;48.980;8.138;2023-05-18T10:47:05;100759.55;;;20.85
34023;BMP280;20673;48.980;8.138;2023-05-18T10:49:34;100762.36;;;20.97
34023;BMP280;20673;48.980;8.138;2023-05-18T10:52:02;100754.41;;;21.31
34023;BMP280;20673;48.980;8.138;2023-05-18T10:54:29;100743.69;;;21.41
34023;BMP280;20673;48.980;8.138;2023-05-18T10:56:56;100746.65;;;21.73
34023;BMP280;20673;48.980;8.138;2023-05-18T10:59:22;100752.61;;;21.51
34023;BMP280;20673;48.980;8.138;2023-05-18T11:01:51;100742.46;;;21.92
34023;BMP280;20673;48.980;8.138;2023-05-18T11:04:25;100748.06;;;21.79
34023;BMP280;20673;48.980;8.138;2023-05-18T11:06:59;100750.87;;;21.68
34023;BMP280;20673;48.980;8.138;2023-05-18T11:09:28;100733.81;;;21.80
34023;BMP280;20673;48.980;8.138;2023-05-18T11:11:58;100728.14;;;22.24
34023;BMP280;20673;48.980;8.138;2023-05-18T11:14:29;100737.78;;;22.28
34023;BMP280;20673;48.980;8.138;2023-05-18T11:17:21;100728.59;;;22.45
34023;BMP280;20673;48.980;8.138;2023-05-18T11:28:03;100729.63;;;22.45
34023;BMP280;20673;48.980;8.138;2023-05-18T11:33:26;100724.55;;;22.57
34023;BMP280;20673;48.980;8.138;2023-05-18T11:36:13;100722.64;;;22.69
34023;BMP280;20673;48.980;8.138;2023-05-18T11:39:04;100726.87;;;22.77
34023;BMP280;20673;48.980;8.138;2023-05-18T11:41:37;100716.86;;;22.76
34023;BMP280;20673;48.980;8.138;2023-05-18T11:44:20;100705.70;;;22.85
34023;BMP280;20673;48.980;8.138;2023-05-18T11:46:54;100708.26;;;22.28
34023;BMP280;20673;48.980;8.138;2023-05-18T11:49:25;100718.92;;;22.25
34023;BMP280;20673;48.980;8.138;2023-05-18T11:54:46;100722.79;;;22.53
34023;BMP280;20673;48.980;8.138;2023-05-18T11:57:14;100716.25;;;22.95
34023;BMP280;20673;48.980;8.138;2023-05-18T11:59:53;100700.44;;;21.96
34023;BMP280;20673;48.980;8.138;2023-05-18T12:02:24;100723.59;;;22.15
34023;BMP280;20673;48.980;8.138;2023-05-18T12:04:51;100723.50;;;22.37
34023;BMP280;20673;48.980;8.138;2023-05-18T12:07:19;100722.81;;;22.55
34023;BMP280;20673;48.980;8.138;2023-05-18T12:09:46;100718.80;;;21.63
34023;BMP280;20673;48.980;8.138;2023-05-18T12:12:16;100722.85;;;21.58
34023;BMP280;20673;48.980;8.138;2023-05-18T12:14:58;100718.86;;;22.28
34023;BMP280;20673;48.980;8.138;2023-05-18T12:20:21;100709.36;;;22.91
34023;BMP280;20673;48.980;8.138;2023-05-18T12:22:52;100704.60;;;22.69
34023;BMP280;20673;48.980;8.138;2023-05-18T12:25:20;100671.47;;;22.03
34023;BMP280;20673;48.980;8.138;2023-05-18T12:27:49;100683.29;;;21.60
34023;BMP280;20673;48.980;8.138;2023-05-18T12:30:24;100698.03;;;22.26
34023;BMP280;20673;48.980;8.138;2023-05-18T12:32:54;100682.98;;;23.07
34023;BMP280;20673;48.980;8.138;2023-05-18T12:35:25;100676.88;;;23.07
34023;BMP280;20673;48.980;8.138;2023-05-18T12:37:53;100669.06;;;22.62
34023;BMP280;20673;48.980;8.138;2023-05-18T12:40:25;100682.15;;;21.44
34023;BMP280;20673;48.980;8.138;2023-05-18T12:42:58;100687.54;;;22.00
34023;BMP280;20673;48.980;8.138;2023-05-18T12:45:31;100682.04;;;22.61
34023;BMP280;20673;48.980;8.138;2023-05-18T12:48:10;100672.56;;;22.74
34023;BMP280;20673;48.980;8.138;2023-05-18T12:50:34;100658.06;;;22.18
34023;BMP280;20673;48.980;8.138;2023-05-18T12:53:01;100657.27;;;21.75
34023;BMP280;20673;48.980;8.138;2023-05-18T12:55:29;100645.90;;;22.53
34023;BMP280;20673;48.980;8.138;2023-05-18T12:58:14;100653.51;;;22.15
34023;BMP280;20673;48.980;8.138;2023-05-18T13:00:46;100655.74;;;21.29
34023;BMP280;20673;48.980;8.138;2023-05-18T13:03:19;100662.75;;;20.92
34023;BMP280;20673;48.980;8.138;2023-05-18T13:06:05;100669.61;;;21.72
34023;BMP280;20673;48.980;8.138;2023-05-18T13:08:32;100671.54;;;22.50
34023;BMP280;20673;48.980;8.138;2023-05-18T13:11:07;100644.87;;;22.32
34023;BMP280;20673;48.980;8.138;2023-05-18T13:13:34;100677.03;;;21.84
34023;BMP280;20673;48.980;8.138;2023-05-18T13:16:00;100661.34;;;22.45
34023;BMP280;20673;48.980;8.138;2023-05-18T13:18:27;100654.82;;;21.73
34023;BMP280;20673;48.980;8.138;2023-05-18T13:20:56;100652.26;;;22.45
34023;BMP280;20673;48.980;8.138;2023-05-18T13:23:28;100650.65;;;22.16
34023;BMP280;20673;48.980;8.138;2023-05-18T13:25:55;100651.23;;;21.46
34023;BMP280;20673;48.980;8.138;2023-05-18T13:28:21;100661.18;;;21.70
34023;BMP280;20673;48.980;8.138;2023-05-18T13:30:48;100661.23;;;22.70
34023;BMP280;20673;48.980;8.138;2023-05-18T13:33:16;100644.59;;;22.38
34023;BMP280;20673;48.980;8.138;2023-05-18T13:35:44;100651.54;;;22.78
34023;BMP280;20673;48.980;8.138;2023-05-18T13:38:12;100652.40;;;23.07
34023;BMP280;20673;48.980;8.138;2023-05-18T13:40:40;100646.34;;;23.31
34023;BMP280;20673;48.980;8.138;2023-05-18T13:43:07;100645.85;;;23.79
34023;BMP280;20673;48.980;8.138;2023-05-18T13:45:37;100651.29;;;23.68
34023;BMP280;20673;48.980;8.138;2023-05-18T13:48:06;100643.86;;;23.64
34023;BMP280;20673;48.980;8.138;2023-05-18T13:50:34;100639.43;;;23.90
34023;BMP280;20673;48.980;8.138;2023-05-18T13:53:00;100628.61;;;24.42
34023;BMP280;20673;48.980;8.138;2023-05-18T13:55:27;100622.81;;;24.34
34023;BMP280;20673;48.980;8.138;2023-05-18T13:57:53;100620.72;;;24.32
34023;BMP280;20673;48.980;8.138;2023-05-18T14:00:19;100616.51;;;24.68
34023;BMP280;20673;48.980;8.138;2023-05-18T14:02:46;100618.51;;;24.81
34023;BMP280;20673;48.980;8.138;2023-05-18T14:05:13;100614.04;;;23.59
34023;BMP280;20673;48.980;8.138;2023-05-18T14:07:41;100609.75;;;24.45
34023;BMP280;20673;48.980;8.138;2023-05-18T14:10:10;100619.54;;;24.73
34023;BMP280;20673;48.980;8.138;2023-05-18T14:12:37;100613.47;;;24.24
34023;BMP280;20673;48.980;8.138;2023-05-18T14:15:04;100607.75;;;24.89
34023;BMP280;20673;48.980;8.138;2023-05-18T14:17:31;100610.64;;;24.52
34023;BMP280;20673;48.980;8.138;2023-05-18T14:20:01;100609.08;;;24.34
34023;BMP280;20673;48.980;8.138;2023-05-18T14:22:27;100599.99;;;24.66
34023;BMP280;20673;48.980;8.138;2023-05-18T14:24:55;100603.54;;;24.78
34023;BMP280;20673;48.980;8.138;2023-05-18T14:27:22;100595.22;;;24.40
34023;BMP280;20673;48.980;8.138;2023-05-18T14:29:49;100595.42;;;23.55
34023;BMP280;20673;48.980;8.138;2023-05-18T14:32:16;100593.73;;;23.95
34023;BMP280;20673;48.980;8.138;2023-05-18T14:34:44;100597.43;;;24.37
34023;BMP280;20673;48.980;8.138;2023-05-18T14:37:12;100594.43;;;24.53
34023;BMP280;20673;48.980;8.138;2023-05-18T14:39:38;100574.39;;;24.96
34023;BMP280;20673;48.980;8.138;2023-05-18T14:42:05;100580.85;;;24.84